Main page
METAR-TAF:

METAR-TAF

Airports :

Ottawa, Ontario, Canada

Ottawa Macdonald–Cartier International Airport

latitude: 45-19N, longitude: 075-40W, elevation: 116 m

Current weather observation

The report was made 55 minutes ago, at 09:00 UTC
Wind 7 kt from the East/Northeast
Temperature 8°C
Humidity 93%
Pressure 1026 hPa
Visibility: 24.1 km
Broken clouds at a height of 20000 ft

METAR: CYOW 220900Z 06007KT 15SM BKN200 08/07 A3029 RMK CI6 SLP260

Time: 05:55 (09:55 UTC)

Forecast

The report was made 1 hour and 17 minutes ago, at 08:38 UTC
Forecast valid from 22 at 09 UTC to 23 at 06 UTC
Wind 3 kt from variable directions
Visibility: 10 km
Scattered clouds at a height of 21000 ft
From 22 at 1200 UTC
Wind 8 kt from the South/Southeast
Visibility: 10 km
Scattered clouds at a height of 24000 ft

TAF: CYOW 220838Z 2209/2306 VRB03KT P6SM SCT210 FM221200 15008KT P6SM SCT240 RMK NXT FCST BY 221200Z

Weather observations and forecasts of more than 4000 airports (METAR and TAF reports).

The available stations are represented by yellow and red dots on the map.

Hover mouse over dot to see the name of the station.

Then click to see weather observations and forecasts.

To change the map : click on the green buttons with a black cross to zoom in, on the green button with a dash to zoom out, or on the green arrows for adjacent maps.


METAR-TAF: